sensor_id;sensor_type;location;lat;lon;timestamp;temperature;humidity
17887;DHT22;9069;52.044;7.472;2022-12-08T00:01:20;7.10;99.90
17887;DHT22;9069;52.044;7.472;2022-12-08T00:03:47;7.10;99.90
17887;DHT22;9069;52.044;7.472;2022-12-08T00:06:29;7.10;99.90
17887;DHT22;9069;52.044;7.472;2022-12-08T00:09:25;7.10;99.90
17887;DHT22;9069;52.044;7.472;2022-12-08T00:11:55;7.10;99.90
17887;DHT22;9069;52.044;7.472;2022-12-08T00:14:45;7.10;99.90
17887;DHT22;9069;52.044;7.472;2022-12-08T00:17:14;7.00;99.90
17887;DHT22;9069;52.044;7.472;2022-12-08T00:19:42;7.00;99.90
17887;DHT22;9069;52.044;7.472;2022-12-08T00:22:10;7.00;99.90
17887;DHT22;9069;52.044;7.472;2022-12-08T00:24:38;7.00;99.90
17887;DHT22;9069;52.044;7.472;2022-12-08T00:27:07;7.00;99.90
17887;DHT22;9069;52.044;7.472;2022-12-08T00:29:34;7.00;99.90
17887;DHT22;9069;52.044;7.472;2022-12-08T00:32:01;7.00;99.90
17887;DHT22;9069;52.044;7.472;2022-12-08T00:34:29;7.00;99.90
17887;DHT22;9069;52.044;7.472;2022-12-08T00:36:55;7.00;99.90
17887;DHT22;9069;52.044;7.472;2022-12-08T00:39:22;7.00;99.90
17887;DHT22;9069;52.044;7.472;2022-12-08T00:41:49;7.00;99.90
17887;DHT22;9069;52.044;7.472;2022-12-08T00:44:34;6.90;99.90
17887;DHT22;9069;52.044;7.472;2022-12-08T00:47:01;6.90;99.90
17887;DHT22;9069;52.044;7.472;2022-12-08T00:49:27;6.90;99.90
17887;DHT22;9069;52.044;7.472;2022-12-08T00:51:54;6.90;99.90
17887;DHT22;9069;52.044;7.472;2022-12-08T00:54:21;6.90;99.90
17887;DHT22;9069;52.044;7.472;2022-12-08T00:56:51;6.90;99.90
17887;DHT22;9069;52.044;7.472;2022-12-08T00:59:18;6.90;99.90
17887;DHT22;9069;52.044;7.472;2022-12-08T01:01:46;6.90;99.90
17887;DHT22;9069;52.044;7.472;2022-12-08T01:04:14;6.80;99.90
17887;DHT22;9069;52.044;7.472;2022-12-08T01:06:42;6.80;99.90
17887;DHT22;9069;52.044;7.472;2022-12-08T01:09:10;6.80;99.90
17887;DHT22;9069;52.044;7.472;2022-12-08T01:11:37;6.80;99.90
17887;DHT22;9069;52.044;7.472;2022-12-08T01:14:04;6.80;99.90
17887;DHT22;9069;52.044;7.472;2022-12-08T01:16:33;6.80;99.90
17887;DHT22;9069;52.044;7.472;2022-12-08T01:19:01;6.80;99.90
17887;DHT22;9069;52.044;7.472;2022-12-08T01:21:28;6.80;99.90
17887;DHT22;9069;52.044;7.472;2022-12-08T01:23:55;6.80;99.90
17887;DHT22;9069;52.044;7.472;2022-12-08T01:26:24;6.70;99.90
17887;DHT22;9069;52.044;7.472;2022-12-08T01:28:51;6.80;99.90
17887;DHT22;9069;52.044;7.472;2022-12-08T01:31:19;6.70;99.90
17887;DHT22;9069;52.044;7.472;2022-12-08T01:33:47;6.80;99.90
17887;DHT22;9069;52.044;7.472;2022-12-08T01:36:29;6.80;99.90
17887;DHT22;9069;52.044;7.472;2022-12-08T01:39:00;6.80;99.90
17887;DHT22;9069;52.044;7.472;2022-12-08T01:41:30;6.80;99.90
17887;DHT22;9069;52.044;7.472;2022-12-08T01:46:41;6.70;99.90
17887;DHT22;9069;52.044;7.472;2022-12-08T01:54:37;6.80;99.90
17887;DHT22;9069;52.044;7.472;2022-12-08T01:57:13;6.80;99.90
17887;DHT22;9069;52.044;7.472;2022-12-08T01:59:45;6.80;99.90
17887;DHT22;9069;52.044;7.472;2022-12-08T02:02:13;6.80;99.90
17887;DHT22;9069;52.044;7.472;2022-12-08T02:04:40;6.80;99.90
17887;DHT22;9069;52.044;7.472;2022-12-08T02:07:07;6.80;99.90
17887;DHT22;9069;52.044;7.472;2022-12-08T02:09:35;6.80;99.90
17887;DHT22;9069;52.044;7.472;2022-12-08T02:12:03;6.90;99.90
17887;DHT22;9069;52.044;7.472;2022-12-08T02:14:29;6.90;99.90
17887;DHT22;9069;52.044;7.472;2022-12-08T02:20:08;6.90;99.90
17887;DHT22;9069;52.044;7.472;2022-12-08T02:22:46;6.90;99.90
17887;DHT22;9069;52.044;7.472;2022-12-08T02:31:33;7.00;99.90
17887;DHT22;9069;52.044;7.472;2022-12-08T02:36:49;7.00;99.90
17887;DHT22;9069;52.044;7.472;2022-12-08T02:39:43;7.10;99.90
17887;DHT22;9069;52.044;7.472;2022-12-08T02:47:19;7.10;99.90
17887;DHT22;9069;52.044;7.472;2022-12-08T02:49:47;7.10;99.90
17887;DHT22;9069;52.044;7.472;2022-12-08T02:54:48;7.10;99.90
17887;DHT22;9069;52.044;7.472;2022-12-08T03:00:08;7.20;99.90
17887;DHT22;9069;52.044;7.472;2022-12-08T03:06:22;7.20;99.90
17887;DHT22;9069;52.044;7.472;2022-12-08T03:08:57;7.20;99.90
17887;DHT22;9069;52.044;7.472;2022-12-08T03:11:45;7.20;99.90
17887;DHT22;9069;52.044;7.472;2022-12-08T03:14:16;7.20;99.90
17887;DHT22;9069;52.044;7.472;2022-12-08T03:16:46;7.20;99.90
17887;DHT22;9069;52.044;7.472;2022-12-08T03:19:17;7.20;99.90
17887;DHT22;9069;52.044;7.472;2022-12-08T03:21:52;7.20;99.90
17887;DHT22;9069;52.044;7.472;2022-12-08T03:24:20;7.20;99.90
17887;DHT22;9069;52.044;7.472;2022-12-08T03:29:27;7.20;99.90
17887;DHT22;9069;52.044;7.472;2022-12-08T03:31:58;7.20;99.90
17887;DHT22;9069;52.044;7.472;2022-12-08T03:34:27;7.20;99.90
17887;DHT22;9069;52.044;7.472;2022-12-08T03:36:55;7.30;99.90
17887;DHT22;9069;52.044;7.472;2022-12-08T03:39:21;7.30;99.90
17887;DHT22;9069;52.044;7.472;2022-12-08T03:41:48;7.20;99.90
17887;DHT22;9069;52.044;7.472;2022-12-08T03:44:15;7.30;99.90
17887;DHT22;9069;52.044;7.472;2022-12-08T03:46:41;7.30;99.90
17887;DHT22;9069;52.044;7.472;2022-12-08T03:49:08;7.30;99.90
17887;DHT22;9069;52.044;7.472;2022-12-08T03:51:35;7.30;99.90
17887;DHT22;9069;52.044;7.472;2022-12-08T03:54:02;7.30;99.90
17887;DHT22;9069;52.044;7.472;2022-12-08T03:56:31;7.30;99.90
17887;DHT22;9069;52.044;7.472;2022-12-08T03:58:58;7.30;99.90
17887;DHT22;9069;52.044;7.472;2022-12-08T04:01:25;7.30;99.90
17887;DHT22;9069;52.044;7.472;2022-12-08T04:03:53;7.30;99.90
17887;DHT22;9069;52.044;7.472;2022-12-08T04:06:21;7.30;99.90
17887;DHT22;9069;52.044;7.472;2022-12-08T04:08:48;7.30;99.90
17887;DHT22;9069;52.044;7.472;2022-12-08T04:11:16;7.30;99.90
17887;DHT22;9069;52.044;7.472;2022-12-08T04:13:43;7.30;99.90
17887;DHT22;9069;52.044;7.472;2022-12-08T04:16:24;7.30;99.90
17887;DHT22;9069;52.044;7.472;2022-12-08T04:18:52;7.30;99.90
17887;DHT22;9069;52.044;7.472;2022-12-08T04:21:19;7.30;99.90
17887;DHT22;9069;52.044;7.472;2022-12-08T04:23:46;7.30;99.90
17887;DHT22;9069;52.044;7.472;2022-12-08T04:26:13;7.30;99.90
17887;DHT22;9069;52.044;7.472;2022-12-08T04:28:40;7.30;99.90
17887;DHT22;9069;52.044;7.472;2022-12-08T04:31:07;7.30;99.90
17887;DHT22;9069;52.044;7.472;2022-12-08T04:33:34;7.40;99.90
17887;DHT22;9069;52.044;7.472;2022-12-08T04:36:02;7.30;99.90
17887;DHT22;9069;52.044;7.472;2022-12-08T04:38:29;7.40;99.90
17887;DHT22;9069;52.044;7.472;2022-12-08T04:40:56;7.40;99.90
17887;DHT22;9069;52.044;7.472;2022-12-08T04:43:22;7.30;99.90
17887;DHT22;9069;52.044;7.472;2022-12-08T04:45:49;7.30;99.90
17887;DHT22;9069;52.044;7.472;2022-12-08T04:48:15;7.40;99.90
17887;DHT22;9069;52.044;7.472;2022-12-08T04:50:43;7.40;99.90
17887;DHT22;9069;52.044;7.472;2022-12-08T04:53:11;7.40;99.90
17887;DHT22;9069;52.044;7.472;2022-12-08T04:55:42;7.40;99.90
17887;DHT22;9069;52.044;7.472;2022-12-08T04:58:15;7.40;99.90
17887;DHT22;9069;52.044;7.472;2022-12-08T05:00:43;7.40;99.90
17887;DHT22;9069;52.044;7.472;2022-12-08T05:03:11;7.40;99.90
17887;DHT22;9069;52.044;7.472;2022-12-08T05:05:38;7.40;99.90
17887;DHT22;9069;52.044;7.472;2022-12-08T05:08:04;7.40;99.90
17887;DHT22;9069;52.044;7.472;2022-12-08T05:10:32;7.40;99.90
17887;DHT22;9069;52.044;7.472;2022-12-08T05:12:58;7.40;99.90
17887;DHT22;9069;52.044;7.472;2022-12-08T05:15:26;7.40;99.90
17887;DHT22;9069;52.044;7.472;2022-12-08T05:17:53;7.40;99.90
17887;DHT22;9069;52.044;7.472;2022-12-08T05:20:19;7.50;99.90
17887;DHT22;9069;52.044;7.472;2022-12-08T05:22:46;7.50;99.90
17887;DHT22;9069;52.044;7.472;2022-12-08T05:25:13;7.40;99.90
17887;DHT22;9069;52.044;7.472;2022-12-08T05:27:40;7.50;99.90
17887;DHT22;9069;52.044;7.472;2022-12-08T05:30:08;7.50;99.90
17887;DHT22;9069;52.044;7.472;2022-12-08T05:32:35;7.40;99.90
17887;DHT22;9069;52.044;7.472;2022-12-08T05:35:02;7.50;99.90
17887;DHT22;9069;52.044;7.472;2022-12-08T05:37:29;7.60;99.90
17887;DHT22;9069;52.044;7.472;2022-12-08T05:39:55;7.50;99.90
17887;DHT22;9069;52.044;7.472;2022-12-08T05:42:22;7.40;99.90
17887;DHT22;9069;52.044;7.472;2022-12-08T05:44:51;7.40;99.90
17887;DHT22;9069;52.044;7.472;2022-12-08T05:47:18;7.40;99.90
17887;DHT22;9069;52.044;7.472;2022-12-08T05:49:44;7.40;99.90
17887;DHT22;9069;52.044;7.472;2022-12-08T05:52:11;7.50;99.90
17887;DHT22;9069;52.044;7.472;2022-12-08T05:54:38;7.40;99.90
17887;DHT22;9069;52.044;7.472;2022-12-08T05:57:04;7.40;99.90
17887;DHT22;9069;52.044;7.472;2022-12-08T05:59:31;7.40;99.90
17887;DHT22;9069;52.044;7.472;2022-12-08T06:01:58;7.40;99.90
17887;DHT22;9069;52.044;7.472;2022-12-08T06:04:25;7.40;99.90
17887;DHT22;9069;52.044;7.472;2022-12-08T06:06:51;7.40;99.90
17887;DHT22;9069;52.044;7.472;2022-12-08T06:09:18;7.50;99.90
17887;DHT22;9069;52.044;7.472;2022-12-08T06:11:45;7.50;99.90
17887;DHT22;9069;52.044;7.472;2022-12-08T06:14:12;7.50;99.90
17887;DHT22;9069;52.044;7.472;2022-12-08T06:16:39;7.50;99.90
17887;DHT22;9069;52.044;7.472;2022-12-08T06:19:06;7.50;99.90
17887;DHT22;9069;52.044;7.472;2022-12-08T06:21:33;7.40;99.90
17887;DHT22;9069;52.044;7.472;2022-12-08T06:24:00;7.50;99.90
17887;DHT22;9069;52.044;7.472;2022-12-08T06:26:26;7.40;99.90
17887;DHT22;9069;52.044;7.472;2022-12-08T06:28:54;7.40;99.90
17887;DHT22;9069;52.044;7.472;2022-12-08T06:31:22;7.40;99.90
17887;DHT22;9069;52.044;7.472;2022-12-08T06:33:51;7.50;99.90
17887;DHT22;9069;52.044;7.472;2022-12-08T06:36:19;7.40;99.90
17887;DHT22;9069;52.044;7.472;2022-12-08T06:38:46;7.40;99.90
17887;DHT22;9069;52.044;7.472;2022-12-08T06:41:13;7.40;99.90
17887;DHT22;9069;52.044;7.472;2022-12-08T06:43:40;7.40;99.90
17887;DHT22;9069;52.044;7.472;2022-12-08T06:46:11;7.40;99.90
17887;DHT22;9069;52.044;7.472;2022-12-08T06:48:38;7.40;99.90
17887;DHT22;9069;52.044;7.472;2022-12-08T06:51:27;7.40;99.90
17887;DHT22;9069;52.044;7.472;2022-12-08T06:53:54;7.40;99.90
17887;DHT22;9069;52.044;7.472;2022-12-08T06:56:20;7.40;99.90
17887;DHT22;9069;52.044;7.472;2022-12-08T06:58:49;7.40;99.90
17887;DHT22;9069;52.044;7.472;2022-12-08T07:01:18;7.40;99.90
17887;DHT22;9069;52.044;7.472;2022-12-08T07:03:45;7.40;99.90
17887;DHT22;9069;52.044;7.472;2022-12-08T07:06:23;7.40;99.90
17887;DHT22;9069;52.044;7.472;2022-12-08T07:08:50;7.40;99.90
17887;DHT22;9069;52.044;7.472;2022-12-08T07:11:17;7.40;99.90
17887;DHT22;9069;52.044;7.472;2022-12-08T07:13:48;7.40;99.90
17887;DHT22;9069;52.044;7.472;2022-12-08T07:16:15;7.40;99.90
17887;DHT22;9069;52.044;7.472;2022-12-08T07:18:42;7.40;99.90
17887;DHT22;9069;52.044;7.472;2022-12-08T07:21:11;7.40;99.90
17887;DHT22;9069;52.044;7.472;2022-12-08T07:23:38;7.40;99.90
17887;DHT22;9069;52.044;7.472;2022-12-08T07:26:06;7.40;99.90
17887;DHT22;9069;52.044;7.472;2022-12-08T07:28:35;7.40;99.90
17887;DHT22;9069;52.044;7.472;2022-12-08T07:31:03;7.40;99.90
17887;DHT22;9069;52.044;7.472;2022-12-08T07:33:30;7.40;99.90
17887;DHT22;9069;52.044;7.472;2022-12-08T07:36:04;7.40;99.90
17887;DHT22;9069;52.044;7.472;2022-12-08T07:38:32;7.40;99.90
17887;DHT22;9069;52.044;7.472;2022-12-08T07:40:59;7.30;99.90
17887;DHT22;9069;52.044;7.472;2022-12-08T07:43:26;7.30;99.90
17887;DHT22;9069;52.044;7.472;2022-12-08T07:45:53;7.40;99.90
17887;DHT22;9069;52.044;7.472;2022-12-08T07:48:20;7.40;99.90
17887;DHT22;9069;52.044;7.472;2022-12-08T07:50:46;7.30;99.90
17887;DHT22;9069;52.044;7.472;2022-12-08T07:53:13;7.30;99.90
17887;DHT22;9069;52.044;7.472;2022-12-08T07:55:41;7.40;99.90
17887;DHT22;9069;52.044;7.472;2022-12-08T07:58:08;7.40;99.90
17887;DHT22;9069;52.044;7.472;2022-12-08T08:00:35;7.40;99.90
17887;DHT22;9069;52.044;7.472;2022-12-08T08:03:02;7.40;99.90
17887;DHT22;9069;52.044;7.472;2022-12-08T08:05:29;7.40;99.90
17887;DHT22;9069;52.044;7.472;2022-12-08T08:07:55;7.40;99.90
17887;DHT22;9069;52.044;7.472;2022-12-08T08:10:22;7.40;99.90
17887;DHT22;9069;52.044;7.472;2022-12-08T08:12:49;7.40;99.90
17887;DHT22;9069;52.044;7.472;2022-12-08T08:15:16;7.40;99.90
17887;DHT22;9069;52.044;7.472;2022-12-08T08:17:48;7.40;99.90
17887;DHT22;9069;52.044;7.472;2022-12-08T08:20:16;7.40;99.90
17887;DHT22;9069;52.044;7.472;2022-12-08T08:22:47;7.40;99.90
17887;DHT22;9069;52.044;7.472;2022-12-08T08:25:15;7.40;99.90
17887;DHT22;9069;52.044;7.472;2022-12-08T08:27:43;7.40;99.90
17887;DHT22;9069;52.044;7.472;2022-12-08T08:30:12;7.40;99.90
17887;DHT22;9069;52.044;7.472;2022-12-08T08:32:47;7.40;99.90
17887;DHT22;9069;52.044;7.472;2022-12-08T08:35:14;7.40;99.90
17887;DHT22;9069;52.044;7.472;2022-12-08T08:37:40;7.30;99.90
17887;DHT22;9069;52.044;7.472;2022-12-08T08:40:14;7.40;99.90
17887;DHT22;9069;52.044;7.472;2022-12-08T08:42:40;7.40;99.90
17887;DHT22;9069;52.044;7.472;2022-12-08T08:45:07;7.30;99.90
17887;DHT22;9069;52.044;7.472;2022-12-08T08:47:34;7.30;99.90
17887;DHT22;9069;52.044;7.472;2022-12-08T08:50:01;7.40;99.90
17887;DHT22;9069;52.044;7.472;2022-12-08T08:52:28;7.40;99.90
17887;DHT22;9069;52.044;7.472;2022-12-08T08:54:55;7.40;99.90
17887;DHT22;9069;52.044;7.472;2022-12-08T08:57:22;7.40;99.90
17887;DHT22;9069;52.044;7.472;2022-12-08T08:59:52;7.40;99.90
17887;DHT22;9069;52.044;7.472;2022-12-08T09:02:19;7.40;99.90
17887;DHT22;9069;52.044;7.472;2022-12-08T09:04:46;7.40;99.90
17887;DHT22;9069;52.044;7.472;2022-12-08T09:07:13;7.40;99.90
17887;DHT22;9069;52.044;7.472;2022-12-08T09:09:41;7.40;99.90
17887;DHT22;9069;52.044;7.472;2022-12-08T09:12:07;7.40;99.90
17887;DHT22;9069;52.044;7.472;2022-12-08T09:14:35;7.40;99.90
17887;DHT22;9069;52.044;7.472;2022-12-08T09:17:01;7.40;99.90
17887;DHT22;9069;52.044;7.472;2022-12-08T09:19:28;7.50;99.90
17887;DHT22;9069;52.044;7.472;2022-12-08T09:21:55;7.50;99.90
17887;DHT22;9069;52.044;7.472;2022-12-08T09:24:21;7.50;99.90
17887;DHT22;9069;52.044;7.472;2022-12-08T09:26:48;7.50;99.90
17887;DHT22;9069;52.044;7.472;2022-12-08T09:29:15;7.50;99.90
17887;DHT22;9069;52.044;7.472;2022-12-08T09:31:43;7.60;99.90
17887;DHT22;9069;52.044;7.472;2022-12-08T09:34:11;7.60;99.90
17887;DHT22;9069;52.044;7.472;2022-12-08T09:36:38;7.60;99.90
17887;DHT22;9069;52.044;7.472;2022-12-08T09:39:05;7.60;99.90
17887;DHT22;9069;52.044;7.472;2022-12-08T09:41:44;7.60;99.90
17887;DHT22;9069;52.044;7.472;2022-12-08T09:46:46;7.70;99.90
17887;DHT22;9069;52.044;7.472;2022-12-08T09:49:16;7.70;99.90
17887;DHT22;9069;52.044;7.472;2022-12-08T09:51:44;7.70;99.90
17887;DHT22;9069;52.044;7.472;2022-12-08T09:54:34;7.70;99.90
17887;DHT22;9069;52.044;7.472;2022-12-08T09:57:06;7.60;99.90
17887;DHT22;9069;52.044;7.472;2022-12-08T09:59:34;7.70;99.90
17887;DHT22;9069;52.044;7.472;2022-12-08T10:02:02;7.70;99.90
17887;DHT22;9069;52.044;7.472;2022-12-08T10:04:31;7.70;99.90
17887;DHT22;9069;52.044;7.472;2022-12-08T10:12:25;7.80;99.90
17887;DHT22;9069;52.044;7.472;2022-12-08T10:17:43;7.80;99.90
17887;DHT22;9069;52.044;7.472;2022-12-08T10:20:15;7.80;99.90
17887;DHT22;9069;52.044;7.472;2022-12-08T10:22:43;7.80;99.90
17887;DHT22;9069;52.044;7.472;2022-12-08T10:25:16;7.80;99.90
17887;DHT22;9069;52.044;7.472;2022-12-08T10:27:43;7.80;99.90
17887;DHT22;9069;52.044;7.472;2022-12-08T10:30:14;7.80;99.90
17887;DHT22;9069;52.044;7.472;2022-12-08T10:32:44;7.90;99.90
17887;DHT22;9069;52.044;7.472;2022-12-08T10:35:13;7.90;99.90
17887;DHT22;9069;52.044;7.472;2022-12-08T10:37:40;7.90;99.90
17887;DHT22;9069;52.044;7.472;2022-12-08T10:42:38;7.90;99.90
17887;DHT22;9069;52.044;7.472;2022-12-08T10:47:38;8.00;99.90
17887;DHT22;9069;52.044;7.472;2022-12-08T10:50:28;8.00;99.90
17887;DHT22;9069;52.044;7.472;2022-12-08T10:53:08;8.00;99.90
17887;DHT22;9069;52.044;7.472;2022-12-08T11:01:00;8.00;99.90
17887;DHT22;9069;52.044;7.472;2022-12-08T11:03:56;8.00;99.90
17887;DHT22;9069;52.044;7.472;2022-12-08T11:08:58;8.10;99.90
17887;DHT22;9069;52.044;7.472;2022-12-08T11:16:49;8.10;99.90
17887;DHT22;9069;52.044;7.472;2022-12-08T11:19:19;8.10;99.90
17887;DHT22;9069;52.044;7.472;2022-12-08T11:21:46;8.10;99.90
17887;DHT22;9069;52.044;7.472;2022-12-08T11:26:46;8.10;99.90
17887;DHT22;9069;52.044;7.472;2022-12-08T11:29:15;8.20;99.90
17887;DHT22;9069;52.044;7.472;2022-12-08T11:31:47;8.10;99.90
17887;DHT22;9069;52.044;7.472;2022-12-08T11:34:32;8.10;99.90
17887;DHT22;9069;52.044;7.472;2022-12-08T11:37:03;8.10;99.90
17887;DHT22;9069;52.044;7.472;2022-12-08T11:39:33;8.10;99.90
17887;DHT22;9069;52.044;7.472;2022-12-08T11:42:02;8.20;99.90
17887;DHT22;9069;52.044;7.472;2022-12-08T11:44:39;8.20;99.90
17887;DHT22;9069;52.044;7.472;2022-12-08T11:47:15;8.20;99.90
17887;DHT22;9069;52.044;7.472;2022-12-08T11:49:45;8.20;99.90
17887;DHT22;9069;52.044;7.472;2022-12-08T11:52:28;8.20;99.90
17887;DHT22;9069;52.044;7.472;2022-12-08T11:55:17;8.20;99.90
17887;DHT22;9069;52.044;7.472;2022-12-08T11:57:46;8.20;99.90
17887;DHT22;9069;52.044;7.472;2022-12-08T12:00:15;8.20;99.90
17887;DHT22;9069;52.044;7.472;2022-12-08T12:02:52;8.20;99.90
17887;DHT22;9069;52.044;7.472;2022-12-08T12:05:44;8.30;99.90
17887;DHT22;9069;52.044;7.472;2022-12-08T12:14:44;8.30;99.90
17887;DHT22;9069;52.044;7.472;2022-12-08T12:20:32;8.30;99.90
17887;DHT22;9069;52.044;7.472;2022-12-08T12:23:06;8.30;99.90
17887;DHT22;9069;52.044;7.472;2022-12-08T12:25:35;8.30;99.90
17887;DHT22;9069;52.044;7.472;2022-12-08T12:28:05;8.30;99.90
17887;DHT22;9069;52.044;7.472;2022-12-08T12:30:57;8.30;99.90
17887;DHT22;9069;52.044;7.472;2022-12-08T12:33:26;8.30;99.90
17887;DHT22;9069;52.044;7.472;2022-12-08T12:35:56;8.30;99.90
17887;DHT22;9069;52.044;7.472;2022-12-08T12:57:51;8.30;99.90
17887;DHT22;9069;52.044;7.472;2022-12-08T13:00:20;8.30;99.90
17887;DHT22;9069;52.044;7.472;2022-12-08T13:02:48;8.30;99.90
17887;DHT22;9069;52.044;7.472;2022-12-08T13:05:27;8.30;99.90
17887;DHT22;9069;52.044;7.472;2022-12-08T13:08:01;8.40;99.90
17887;DHT22;9069;52.044;7.472;2022-12-08T13:10:31;8.40;99.90
17887;DHT22;9069;52.044;7.472;2022-12-08T13:15:58;8.40;99.90
17887;DHT22;9069;52.044;7.472;2022-12-08T13:18:51;8.40;99.90
17887;DHT22;9069;52.044;7.472;2022-12-08T13:21:22;8.40;99.90
17887;DHT22;9069;52.044;7.472;2022-12-08T13:26:46;8.40;99.90
17887;DHT22;9069;52.044;7.472;2022-12-08T13:29:17;8.40;99.90
17887;DHT22;9069;52.044;7.472;2022-12-08T13:31:57;8.40;99.90
17887;DHT22;9069;52.044;7.472;2022-12-08T13:34:50;8.40;99.90
17887;DHT22;9069;52.044;7.472;2022-12-08T13:37:24;8.40;99.90
17887;DHT22;9069;52.044;7.472;2022-12-08T13:40:09;8.40;99.90
17887;DHT22;9069;52.044;7.472;2022-12-08T13:45:13;8.40;99.90
17887;DHT22;9069;52.044;7.472;2022-12-08T13:48:24;8.40;99.90
17887;DHT22;9069;52.044;7.472;2022-12-08T13:51:16;8.40;99.90
17887;DHT22;9069;52.044;7.472;2022-12-08T13:54:29;8.40;99.90
17887;DHT22;9069;52.044;7.472;2022-12-08T13:57:25;8.40;99.90
17887;DHT22;9069;52.044;7.472;2022-12-08T13:59:52;8.40;99.90
17887;DHT22;9069;52.044;7.472;2022-12-08T14:02:37;8.40;99.90
17887;DHT22;9069;52.044;7.472;2022-12-08T14:05:14;8.40;99.90
17887;DHT22;9069;52.044;7.472;2022-12-08T14:07:46;8.40;99.90
17887;DHT22;9069;52.044;7.472;2022-12-08T14:10:21;8.40;99.90
17887;DHT22;9069;52.044;7.472;2022-12-08T14:13:02;8.40;99.90
17887;DHT22;9069;52.044;7.472;2022-12-08T14:15:32;8.40;99.90
17887;DHT22;9069;52.044;7.472;2022-12-08T14:18:05;8.30;99.90
17887;DHT22;9069;52.044;7.472;2022-12-08T14:20:34;8.40;99.90
17887;DHT22;9069;52.044;7.472;2022-12-08T14:23:20;8.30;99.90
17887;DHT22;9069;52.044;7.472;2022-12-08T14:25:47;8.30;99.90
17887;DHT22;9069;52.044;7.472;2022-12-08T14:28:14;8.30;99.90
17887;DHT22;9069;52.044;7.472;2022-12-08T14:30:41;8.30;99.90
17887;DHT22;9069;52.044;7.472;2022-12-08T14:33:13;8.30;99.90
17887;DHT22;9069;52.044;7.472;2022-12-08T14:35:40;8.30;99.90
17887;DHT22;9069;52.044;7.472;2022-12-08T14:38:16;8.30;99.90
17887;DHT22;9069;52.044;7.472;2022-12-08T14:40:45;8.30;99.90
17887;DHT22;9069;52.044;7.472;2022-12-08T14:43:18;8.30;99.90
17887;DHT22;9069;52.044;7.472;2022-12-08T14:45:47;8.20;99.90
17887;DHT22;9069;52.044;7.472;2022-12-08T14:48:26;8.20;99.90
17887;DHT22;9069;52.044;7.472;2022-12-08T14:53:41;8.20;99.90
17887;DHT22;9069;52.044;7.472;2022-12-08T14:58:46;8.20;99.90
17887;DHT22;9069;52.044;7.472;2022-12-08T15:01:17;8.20;99.90
17887;DHT22;9069;52.044;7.472;2022-12-08T15:03:48;8.10;99.90
17887;DHT22;9069;52.044;7.472;2022-12-08T15:06:19;8.10;99.90
17887;DHT22;9069;52.044;7.472;2022-12-08T15:08:56;8.10;99.90
17887;DHT22;9069;52.044;7.472;2022-12-08T15:11:30;8.10;99.90
17887;DHT22;9069;52.044;7.472;2022-12-08T15:13:57;8.10;99.90
17887;DHT22;9069;52.044;7.472;2022-12-08T15:21:42;8.00;99.90
17887;DHT22;9069;52.044;7.472;2022-12-08T15:24:11;8.00;99.90
17887;DHT22;9069;52.044;7.472;2022-12-08T15:26:42;7.90;99.90
17887;DHT22;9069;52.044;7.472;2022-12-08T15:29:20;7.90;99.90
17887;DHT22;9069;52.044;7.472;2022-12-08T15:31:48;7.90;99.90
17887;DHT22;9069;52.044;7.472;2022-12-08T15:34:15;7.90;99.90
17887;DHT22;9069;52.044;7.472;2022-12-08T15:36:42;7.80;99.90
17887;DHT22;9069;52.044;7.472;2022-12-08T15:39:24;7.90;99.90
17887;DHT22;9069;52.044;7.472;2022-12-08T15:41:52;7.80;99.90
17887;DHT22;9069;52.044;7.472;2022-12-08T15:44:19;7.80;99.90
17887;DHT22;9069;52.044;7.472;2022-12-08T15:46:46;7.80;99.90
17887;DHT22;9069;52.044;7.472;2022-12-08T15:49:17;7.80;99.90
17887;DHT22;9069;52.044;7.472;2022-12-08T15:51:44;7.70;99.90
17887;DHT22;9069;52.044;7.472;2022-12-08T15:54:11;7.70;99.90
17887;DHT22;9069;52.044;7.472;2022-12-08T15:56:50;7.70;99.90
17887;DHT22;9069;52.044;7.472;2022-12-08T15:59:37;7.70;99.90
17887;DHT22;9069;52.044;7.472;2022-12-08T16:02:04;7.60;99.90
17887;DHT22;9069;52.044;7.472;2022-12-08T16:04:31;7.60;99.90
17887;DHT22;9069;52.044;7.472;2022-12-08T16:07:28;7.60;99.90
17887;DHT22;9069;52.044;7.472;2022-12-08T16:09:55;7.60;99.90
17887;DHT22;9069;52.044;7.472;2022-12-08T16:12:24;7.60;99.90
17887;DHT22;9069;52.044;7.472;2022-12-08T16:15:33;7.50;99.90
17887;DHT22;9069;52.044;7.472;2022-12-08T16:18:24;7.50;99.90
17887;DHT22;9069;52.044;7.472;2022-12-08T16:20:51;7.50;99.90
17887;DHT22;9069;52.044;7.472;2022-12-08T16:23:38;7.50;99.90
17887;DHT22;9069;52.044;7.472;2022-12-08T16:26:19;7.40;99.90
17887;DHT22;9069;52.044;7.472;2022-12-08T16:29:07;7.40;99.80
17887;DHT22;9069;52.044;7.472;2022-12-08T16:31:35;7.40;99.90
17887;DHT22;9069;52.044;7.472;2022-12-08T16:34:02;7.30;99.90
17887;DHT22;9069;52.044;7.472;2022-12-08T16:36:28;7.30;99.90
17887;DHT22;9069;52.044;7.472;2022-12-08T16:38:55;7.30;99.90
17887;DHT22;9069;52.044;7.472;2022-12-08T16:41:22;7.20;99.90
17887;DHT22;9069;52.044;7.472;2022-12-08T16:44:07;7.20;99.90
17887;DHT22;9069;52.044;7.472;2022-12-08T16:46:34;7.10;99.90
17887;DHT22;9069;52.044;7.472;2022-12-08T16:49:03;7.10;99.80
17887;DHT22;9069;52.044;7.472;2022-12-08T16:51:30;7.10;99.80
17887;DHT22;9069;52.044;7.472;2022-12-08T16:53:56;7.00;99.80
17887;DHT22;9069;52.044;7.472;2022-12-08T16:56:24;7.00;99.80
17887;DHT22;9069;52.044;7.472;2022-12-08T16:58:58;6.90;99.70
17887;DHT22;9069;52.044;7.472;2022-12-08T17:01:25;6.90;99.80
17887;DHT22;9069;52.044;7.472;2022-12-08T17:03:51;6.90;99.80
17887;DHT22;9069;52.044;7.472;2022-12-08T17:06:38;6.90;99.70
17887;DHT22;9069;52.044;7.472;2022-12-08T17:09:05;6.90;99.80
17887;DHT22;9069;52.044;7.472;2022-12-08T17:11:32;6.80;99.80
17887;DHT22;9069;52.044;7.472;2022-12-08T17:14:06;6.80;99.80
17887;DHT22;9069;52.044;7.472;2022-12-08T17:16:34;6.80;99.80
17887;DHT22;9069;52.044;7.472;2022-12-08T17:19:01;6.70;99.80
17887;DHT22;9069;52.044;7.472;2022-12-08T17:21:28;6.70;99.90
17887;DHT22;9069;52.044;7.472;2022-12-08T17:23:55;6.70;99.90
17887;DHT22;9069;52.044;7.472;2022-12-08T17:26:21;6.70;99.90
17887;DHT22;9069;52.044;7.472;2022-12-08T17:28:48;6.60;99.90
17887;DHT22;9069;52.044;7.472;2022-12-08T17:31:31;6.60;99.90
17887;DHT22;9069;52.044;7.472;2022-12-08T17:34:00;6.60;99.90
17887;DHT22;9069;52.044;7.472;2022-12-08T17:36:26;6.60;99.90
17887;DHT22;9069;52.044;7.472;2022-12-08T17:38:54;6.60;99.90
17887;DHT22;9069;52.044;7.472;2022-12-08T17:41:21;6.60;99.90
17887;DHT22;9069;52.044;7.472;2022-12-08T17:43:47;6.60;99.90
17887;DHT22;9069;52.044;7.472;2022-12-08T17:46:18;6.60;99.90
17887;DHT22;9069;52.044;7.472;2022-12-08T17:48:45;6.60;99.90
17887;DHT22;9069;52.044;7.472;2022-12-08T17:51:13;6.60;99.90
17887;DHT22;9069;52.044;7.472;2022-12-08T17:53:40;6.60;99.90
17887;DHT22;9069;52.044;7.472;2022-12-08T17:56:14;6.60;99.90
17887;DHT22;9069;52.044;7.472;2022-12-08T17:58:41;6.60;99.90
17887;DHT22;9069;52.044;7.472;2022-12-08T18:01:09;6.60;99.90
17887;DHT22;9069;52.044;7.472;2022-12-08T18:03:36;6.60;99.90
17887;DHT22;9069;52.044;7.472;2022-12-08T18:06:08;6.60;99.90
17887;DHT22;9069;52.044;7.472;2022-12-08T18:08:35;6.60;99.90
17887;DHT22;9069;52.044;7.472;2022-12-08T18:11:03;6.60;99.90
17887;DHT22;9069;52.044;7.472;2022-12-08T18:13:30;6.60;99.90
17887;DHT22;9069;52.044;7.472;2022-12-08T18:15:57;6.60;99.90
17887;DHT22;9069;52.044;7.472;2022-12-08T18:18:24;6.60;99.90
17887;DHT22;9069;52.044;7.472;2022-12-08T18:20:50;6.60;99.90